sensor_id;sensor_type;location;lat;lon;timestamp;temperature;humidity
39751;DHT22;37579;51.074;17.004;2022-07-19T00:01:42;23.70;48.20
39751;DHT22;37579;51.074;17.004;2022-07-19T00:04:08;23.70;48.10
39751;DHT22;37579;51.074;17.004;2022-07-19T00:06:34;23.70;48.30
39751;DHT22;37579;51.074;17.004;2022-07-19T00:08:59;23.70;48.50
39751;DHT22;37579;51.074;17.004;2022-07-19T00:11:25;23.80;48.60
39751;DHT22;37579;51.074;17.004;2022-07-19T00:13:51;23.70;48.80
39751;DHT22;37579;51.074;17.004;2022-07-19T00:16:17;23.70;49.00
39751;DHT22;37579;51.074;17.004;2022-07-19T00:18:43;23.70;49.00
39751;DHT22;37579;51.074;17.004;2022-07-19T00:21:09;23.70;49.10
39751;DHT22;37579;51.074;17.004;2022-07-19T00:23:34;23.80;49.70
39751;DHT22;37579;51.074;17.004;2022-07-19T00:26:04;23.70;49.10
39751;DHT22;37579;51.074;17.004;2022-07-19T00:28:30;23.70;49.20
39751;DHT22;37579;51.074;17.004;2022-07-19T00:30:56;23.60;49.30
39751;DHT22;37579;51.074;17.004;2022-07-19T00:33:22;23.60;49.40
39751;DHT22;37579;51.074;17.004;2022-07-19T00:35:48;23.60;49.50
39751;DHT22;37579;51.074;17.004;2022-07-19T00:38:14;23.60;49.40
39751;DHT22;37579;51.074;17.004;2022-07-19T00:40:41;23.60;49.40
39751;DHT22;37579;51.074;17.004;2022-07-19T00:43:11;23.60;49.50
39751;DHT22;37579;51.074;17.004;2022-07-19T00:45:38;23.50;49.60
39751;DHT22;37579;51.074;17.004;2022-07-19T00:48:04;23.60;49.70
39751;DHT22;37579;51.074;17.004;2022-07-19T00:50:30;23.60;49.70
39751;DHT22;37579;51.074;17.004;2022-07-19T00:52:59;23.50;49.70
39751;DHT22;37579;51.074;17.004;2022-07-19T00:55:33;23.50;49.90
39751;DHT22;37579;51.074;17.004;2022-07-19T00:58:02;23.50;50.00
39751;DHT22;37579;51.074;17.004;2022-07-19T01:00:30;23.40;50.10
39751;DHT22;37579;51.074;17.004;2022-07-19T01:02:57;23.30;50.40
39751;DHT22;37579;51.074;17.004;2022-07-19T01:05:24;23.30;50.50
39751;DHT22;37579;51.074;17.004;2022-07-19T01:07:50;23.20;50.70
39751;DHT22;37579;51.074;17.004;2022-07-19T01:10:15;23.10;50.80
39751;DHT22;37579;51.074;17.004;2022-07-19T01:12:42;23.20;51.50
39751;DHT22;37579;51.074;17.004;2022-07-19T01:15:22;23.20;51.10
39751;DHT22;37579;51.074;17.004;2022-07-19T01:17:49;23.20;51.00
39751;DHT22;37579;51.074;17.004;2022-07-19T01:20:15;23.20;51.10
39751;DHT22;37579;51.074;17.004;2022-07-19T01:22:45;23.10;51.30
39751;DHT22;37579;51.074;17.004;2022-07-19T01:25:12;23.00;51.40
39751;DHT22;37579;51.074;17.004;2022-07-19T01:27:46;22.90;51.70
39751;DHT22;37579;51.074;17.004;2022-07-19T01:30:19;22.90;51.90
39751;DHT22;37579;51.074;17.004;2022-07-19T01:32:46;22.90;51.90
39751;DHT22;37579;51.074;17.004;2022-07-19T01:35:12;23.00;51.80
39751;DHT22;37579;51.074;17.004;2022-07-19T01:37:39;22.90;51.60
39751;DHT22;37579;51.074;17.004;2022-07-19T01:40:07;22.90;51.70
39751;DHT22;37579;51.074;17.004;2022-07-19T01:42:33;22.80;51.80
39751;DHT22;37579;51.074;17.004;2022-07-19T01:44:59;22.80;51.90
39751;DHT22;37579;51.074;17.004;2022-07-19T01:47:25;22.80;52.10
39751;DHT22;37579;51.074;17.004;2022-07-19T01:49:52;22.70;52.10
39751;DHT22;37579;51.074;17.004;2022-07-19T01:52:18;22.70;52.20
39751;DHT22;37579;51.074;17.004;2022-07-19T01:54:43;22.70;52.30
39751;DHT22;37579;51.074;17.004;2022-07-19T01:57:09;22.60;52.50
39751;DHT22;37579;51.074;17.004;2022-07-19T01:59:39;22.60;52.60
39751;DHT22;37579;51.074;17.004;2022-07-19T02:02:05;22.60;52.80
39751;DHT22;37579;51.074;17.004;2022-07-19T02:04:31;22.50;52.90
39751;DHT22;37579;51.074;17.004;2022-07-19T02:06:57;22.50;53.00
39751;DHT22;37579;51.074;17.004;2022-07-19T02:09:23;22.40;53.20
39751;DHT22;37579;51.074;17.004;2022-07-19T02:11:49;22.40;53.40
39751;DHT22;37579;51.074;17.004;2022-07-19T02:14:15;22.40;53.50
39751;DHT22;37579;51.074;17.004;2022-07-19T02:16:41;22.30;53.60
39751;DHT22;37579;51.074;17.004;2022-07-19T02:19:08;22.30;53.60
39751;DHT22;37579;51.074;17.004;2022-07-19T02:21:35;22.30;53.60
39751;DHT22;37579;51.074;17.004;2022-07-19T02:24:01;22.20;53.70
39751;DHT22;37579;51.074;17.004;2022-07-19T02:26:27;22.20;53.80
39751;DHT22;37579;51.074;17.004;2022-07-19T02:28:52;22.20;53.80
39751;DHT22;37579;51.074;17.004;2022-07-19T02:31:19;22.20;53.90
39751;DHT22;37579;51.074;17.004;2022-07-19T02:33:45;22.20;54.20
39751;DHT22;37579;51.074;17.004;2022-07-19T02:36:11;22.20;54.00
39751;DHT22;37579;51.074;17.004;2022-07-19T02:38:38;22.20;54.10
39751;DHT22;37579;51.074;17.004;2022-07-19T02:41:03;22.20;54.30
39751;DHT22;37579;51.074;17.004;2022-07-19T02:43:29;22.20;54.30
39751;DHT22;37579;51.074;17.004;2022-07-19T02:45:55;22.20;54.50
39751;DHT22;37579;51.074;17.004;2022-07-19T02:48:21;22.20;54.40
39751;DHT22;37579;51.074;17.004;2022-07-19T02:50:47;22.20;54.40
39751;DHT22;37579;51.074;17.004;2022-07-19T02:53:13;22.20;54.50
39751;DHT22;37579;51.074;17.004;2022-07-19T02:55:40;22.20;54.60
39751;DHT22;37579;51.074;17.004;2022-07-19T02:58:05;22.20;54.80
39751;DHT22;37579;51.074;17.004;2022-07-19T03:00:32;22.10;54.70
39751;DHT22;37579;51.074;17.004;2022-07-19T03:02:58;22.10;54.70
39751;DHT22;37579;51.074;17.004;2022-07-19T03:05:43;22.20;54.70
39751;DHT22;37579;51.074;17.004;2022-07-19T03:08:09;22.20;54.80
39751;DHT22;37579;51.074;17.004;2022-07-19T03:10:35;22.10;54.80
39751;DHT22;37579;51.074;17.004;2022-07-19T03:13:00;22.10;54.70
39751;DHT22;37579;51.074;17.004;2022-07-19T03:15:26;22.10;54.90
39751;DHT22;37579;51.074;17.004;2022-07-19T03:17:52;22.10;55.00
39751;DHT22;37579;51.074;17.004;2022-07-19T03:20:18;22.10;54.90
39751;DHT22;37579;51.074;17.004;2022-07-19T03:22:44;22.10;54.90
39751;DHT22;37579;51.074;17.004;2022-07-19T03:25:09;22.20;55.00
39751;DHT22;37579;51.074;17.004;2022-07-19T03:27:35;22.10;54.90
39751;DHT22;37579;51.074;17.004;2022-07-19T03:30:01;22.20;54.90
39751;DHT22;37579;51.074;17.004;2022-07-19T03:32:27;22.20;54.80
39751;DHT22;37579;51.074;17.004;2022-07-19T03:34:53;22.10;54.80
39751;DHT22;37579;51.074;17.004;2022-07-19T03:37:18;22.00;54.70
39751;DHT22;37579;51.074;17.004;2022-07-19T03:39:44;22.00;54.80
39751;DHT22;37579;51.074;17.004;2022-07-19T03:42:10;22.00;54.90
39751;DHT22;37579;51.074;17.004;2022-07-19T03:44:35;22.00;54.60
39751;DHT22;37579;51.074;17.004;2022-07-19T03:47:01;21.90;54.40
39751;DHT22;37579;51.074;17.004;2022-07-19T03:49:27;21.90;54.30
39751;DHT22;37579;51.074;17.004;2022-07-19T03:51:53;21.90;54.00
39751;DHT22;37579;51.074;17.004;2022-07-19T03:54:19;21.90;53.90
39751;DHT22;37579;51.074;17.004;2022-07-19T03:56:44;21.90;53.60
39751;DHT22;37579;51.074;17.004;2022-07-19T03:59:10;21.90;53.50
39751;DHT22;37579;51.074;17.004;2022-07-19T04:01:36;21.90;53.50
39751;DHT22;37579;51.074;17.004;2022-07-19T04:04:04;21.90;53.60
39751;DHT22;37579;51.074;17.004;2022-07-19T04:06:30;21.80;53.80
39751;DHT22;37579;51.074;17.004;2022-07-19T04:08:56;21.90;53.90
39751;DHT22;37579;51.074;17.004;2022-07-19T04:11:22;21.90;53.90
39751;DHT22;37579;51.074;17.004;2022-07-19T04:13:48;21.90;53.80
39751;DHT22;37579;51.074;17.004;2022-07-19T04:16:13;21.90;53.60
39751;DHT22;37579;51.074;17.004;2022-07-19T04:18:39;21.90;53.60
39751;DHT22;37579;51.074;17.004;2022-07-19T04:21:05;21.90;53.60
39751;DHT22;37579;51.074;17.004;2022-07-19T04:23:31;22.00;53.60
39751;DHT22;37579;51.074;17.004;2022-07-19T04:25:57;22.00;53.60
39751;DHT22;37579;51.074;17.004;2022-07-19T04:28:23;22.10;53.50
39751;DHT22;37579;51.074;17.004;2022-07-19T04:30:49;22.10;53.40
39751;DHT22;37579;51.074;17.004;2022-07-19T04:33:16;22.10;53.20
39751;DHT22;37579;51.074;17.004;2022-07-19T04:35:42;22.30;52.70
39751;DHT22;37579;51.074;17.004;2022-07-19T04:38:08;22.30;52.60
39751;DHT22;37579;51.074;17.004;2022-07-19T04:40:34;22.30;52.40
39751;DHT22;37579;51.074;17.004;2022-07-19T04:43:00;22.30;52.40
39751;DHT22;37579;51.074;17.004;2022-07-19T04:45:26;22.30;52.60
39751;DHT22;37579;51.074;17.004;2022-07-19T04:47:52;22.40;52.60
39751;DHT22;37579;51.074;17.004;2022-07-19T04:50:17;22.60;52.80
39751;DHT22;37579;51.074;17.004;2022-07-19T04:52:43;22.60;52.90
39751;DHT22;37579;51.074;17.004;2022-07-19T04:55:09;22.70;52.70
39751;DHT22;37579;51.074;17.004;2022-07-19T04:57:35;22.80;52.10
39751;DHT22;37579;51.074;17.004;2022-07-19T05:00:03;22.90;52.00
39751;DHT22;37579;51.074;17.004;2022-07-19T05:02:29;23.00;52.20
39751;DHT22;37579;51.074;17.004;2022-07-19T05:04:55;23.10;51.60
39751;DHT22;37579;51.074;17.004;2022-07-19T05:07:20;23.10;51.00
39751;DHT22;37579;51.074;17.004;2022-07-19T05:09:46;23.10;50.90
39751;DHT22;37579;51.074;17.004;2022-07-19T05:12:12;23.20;50.80
39751;DHT22;37579;51.074;17.004;2022-07-19T05:14:38;23.30;50.60
39751;DHT22;37579;51.074;17.004;2022-07-19T05:17:04;23.40;50.50
39751;DHT22;37579;51.074;17.004;2022-07-19T05:19:29;23.50;50.30
39751;DHT22;37579;51.074;17.004;2022-07-19T05:21:55;23.60;49.90
39751;DHT22;37579;51.074;17.004;2022-07-19T05:24:21;23.70;49.90
39751;DHT22;37579;51.074;17.004;2022-07-19T05:26:46;23.80;49.60
39751;DHT22;37579;51.074;17.004;2022-07-19T05:29:12;23.90;49.70
39751;DHT22;37579;51.074;17.004;2022-07-19T05:31:38;24.00;49.20
39751;DHT22;37579;51.074;17.004;2022-07-19T05:34:04;24.10;48.60
39751;DHT22;37579;51.074;17.004;2022-07-19T05:36:30;24.10;48.50
39751;DHT22;37579;51.074;17.004;2022-07-19T05:38:55;24.30;48.30
39751;DHT22;37579;51.074;17.004;2022-07-19T05:41:21;24.30;46.90
39751;DHT22;37579;51.074;17.004;2022-07-19T05:43:48;24.30;46.30
39751;DHT22;37579;51.074;17.004;2022-07-19T05:46:14;24.40;46.30
39751;DHT22;37579;51.074;17.004;2022-07-19T05:48:40;24.50;46.10
39751;DHT22;37579;51.074;17.004;2022-07-19T05:51:06;24.60;45.80
39751;DHT22;37579;51.074;17.004;2022-07-19T05:53:32;24.70;46.00
39751;DHT22;37579;51.074;17.004;2022-07-19T05:55:57;24.80;46.20
39751;DHT22;37579;51.074;17.004;2022-07-19T05:58:23;24.90;45.10
39751;DHT22;37579;51.074;17.004;2022-07-19T06:00:50;25.00;45.30
39751;DHT22;37579;51.074;17.004;2022-07-19T06:03:34;25.20;45.10
39751;DHT22;37579;51.074;17.004;2022-07-19T06:06:00;25.20;43.60
39751;DHT22;37579;51.074;17.004;2022-07-19T06:08:26;25.20;43.80
39751;DHT22;37579;51.074;17.004;2022-07-19T06:10:52;25.20;44.00
39751;DHT22;37579;51.074;17.004;2022-07-19T06:13:18;25.30;44.40
39751;DHT22;37579;51.074;17.004;2022-07-19T06:15:44;25.40;44.40
39751;DHT22;37579;51.074;17.004;2022-07-19T06:18:10;25.60;44.20
39751;DHT22;37579;51.074;17.004;2022-07-19T06:20:36;25.70;44.00
39751;DHT22;37579;51.074;17.004;2022-07-19T06:23:02;26.10;43.10
39751;DHT22;37579;51.074;17.004;2022-07-19T06:25:27;26.70;42.00
39751;DHT22;37579;51.074;17.004;2022-07-19T06:27:53;27.60;40.00
39751;DHT22;37579;51.074;17.004;2022-07-19T06:30:19;28.40;38.40
39751;DHT22;37579;51.074;17.004;2022-07-19T06:32:45;29.00;37.40
39751;DHT22;37579;51.074;17.004;2022-07-19T06:35:10;29.50;37.00
39751;DHT22;37579;51.074;17.004;2022-07-19T06:37:36;29.60;36.60
39751;DHT22;37579;51.074;17.004;2022-07-19T06:40:02;29.90;36.20
39751;DHT22;37579;51.074;17.004;2022-07-19T06:42:28;30.10;36.30
39751;DHT22;37579;51.074;17.004;2022-07-19T06:44:55;30.20;36.10
39751;DHT22;37579;51.074;17.004;2022-07-19T06:47:21;30.40;35.80
39751;DHT22;37579;51.074;17.004;2022-07-19T06:49:47;30.30;35.50
39751;DHT22;37579;51.074;17.004;2022-07-19T06:52:13;30.50;35.50
39751;DHT22;37579;51.074;17.004;2022-07-19T06:54:38;29.90;36.00
39751;DHT22;37579;51.074;17.004;2022-07-19T06:57:04;29.10;37.90
39751;DHT22;37579;51.074;17.004;2022-07-19T06:59:32;28.20;39.70
39751;DHT22;37579;51.074;17.004;2022-07-19T07:01:57;27.60;41.10
39751;DHT22;37579;51.074;17.004;2022-07-19T07:04:23;27.20;41.90
39751;DHT22;37579;51.074;17.004;2022-07-19T07:06:49;27.00;42.60
39751;DHT22;37579;51.074;17.004;2022-07-19T07:09:15;26.80;42.70
39751;DHT22;37579;51.074;17.004;2022-07-19T07:11:41;26.80;43.10
39751;DHT22;37579;51.074;17.004;2022-07-19T07:14:06;26.70;43.30
39751;DHT22;37579;51.074;17.004;2022-07-19T07:16:32;26.70;43.70
39751;DHT22;37579;51.074;17.004;2022-07-19T07:18:58;26.70;43.60
39751;DHT22;37579;51.074;17.004;2022-07-19T07:21:23;26.70;43.90
39751;DHT22;37579;51.074;17.004;2022-07-19T07:23:49;26.70;44.10
39751;DHT22;37579;51.074;17.004;2022-07-19T07:26:15;26.70;44.20
39751;DHT22;37579;51.074;17.004;2022-07-19T07:28:41;26.70;44.10
39751;DHT22;37579;51.074;17.004;2022-07-19T07:31:07;26.60;44.10
39751;DHT22;37579;51.074;17.004;2022-07-19T07:33:32;26.60;44.20
39751;DHT22;37579;51.074;17.004;2022-07-19T07:35:58;26.50;44.20
39751;DHT22;37579;51.074;17.004;2022-07-19T07:38:24;26.50;44.70
39751;DHT22;37579;51.074;17.004;2022-07-19T07:40:49;26.50;44.80
39751;DHT22;37579;51.074;17.004;2022-07-19T07:43:15;26.50;45.40
39751;DHT22;37579;51.074;17.004;2022-07-19T07:45:41;26.50;45.70
39751;DHT22;37579;51.074;17.004;2022-07-19T07:48:08;26.50;45.60
39751;DHT22;37579;51.074;17.004;2022-07-19T07:50:34;26.50;45.70
39751;DHT22;37579;51.074;17.004;2022-07-19T07:52:59;26.50;46.10
39751;DHT22;37579;51.074;17.004;2022-07-19T07:55:25;26.40;46.10
39751;DHT22;37579;51.074;17.004;2022-07-19T07:57:51;26.40;46.00
39751;DHT22;37579;51.074;17.004;2022-07-19T08:00:16;26.40;46.00
39751;DHT22;37579;51.074;17.004;2022-07-19T08:02:45;26.30;45.80
39751;DHT22;37579;51.074;17.004;2022-07-19T08:05:11;26.30;46.10
39751;DHT22;37579;51.074;17.004;2022-07-19T08:07:38;26.20;46.00
39751;DHT22;37579;51.074;17.004;2022-07-19T08:10:06;26.10;46.10
39751;DHT22;37579;51.074;17.004;2022-07-19T08:12:33;26.10;46.40
39751;DHT22;37579;51.074;17.004;2022-07-19T08:14:59;26.10;46.70
39751;DHT22;37579;51.074;17.004;2022-07-19T08:17:25;26.10;47.10
39751;DHT22;37579;51.074;17.004;2022-07-19T08:19:51;26.10;48.10
39751;DHT22;37579;51.074;17.004;2022-07-19T08:22:17;26.10;48.10
39751;DHT22;37579;51.074;17.004;2022-07-19T08:24:44;26.00;48.40
39751;DHT22;37579;51.074;17.004;2022-07-19T08:27:10;26.00;48.40
39751;DHT22;37579;51.074;17.004;2022-07-19T08:29:36;26.00;48.70
39751;DHT22;37579;51.074;17.004;2022-07-19T08:32:02;26.00;48.80
39751;DHT22;37579;51.074;17.004;2022-07-19T08:34:28;26.00;49.00
39751;DHT22;37579;51.074;17.004;2022-07-19T08:36:54;26.00;49.10
39751;DHT22;37579;51.074;17.004;2022-07-19T08:39:19;26.00;49.10
39751;DHT22;37579;51.074;17.004;2022-07-19T08:41:46;25.90;49.00
39751;DHT22;37579;51.074;17.004;2022-07-19T08:44:13;25.90;49.00
39751;DHT22;37579;51.074;17.004;2022-07-19T08:46:40;25.90;49.10
39751;DHT22;37579;51.074;17.004;2022-07-19T08:49:08;25.90;49.10
39751;DHT22;37579;51.074;17.004;2022-07-19T08:51:34;25.90;49.20
39751;DHT22;37579;51.074;17.004;2022-07-19T08:54:00;25.90;49.30
39751;DHT22;37579;51.074;17.004;2022-07-19T08:56:27;25.80;49.20
39751;DHT22;37579;51.074;17.004;2022-07-19T08:59:12;25.80;49.40
39751;DHT22;37579;51.074;17.004;2022-07-19T09:01:38;25.80;49.10
39751;DHT22;37579;51.074;17.004;2022-07-19T09:06:45;25.80;49.60
39751;DHT22;37579;51.074;17.004;2022-07-19T09:09:13;25.80;49.20
39751;DHT22;37579;51.074;17.004;2022-07-19T09:11:41;25.80;49.20
39751;DHT22;37579;51.074;17.004;2022-07-19T09:14:21;25.80;49.70
39751;DHT22;37579;51.074;17.004;2022-07-19T09:19:23;25.80;49.00
39751;DHT22;37579;51.074;17.004;2022-07-19T09:21:54;25.70;49.20
39751;DHT22;37579;51.074;17.004;2022-07-19T09:24:21;25.80;49.80
39751;DHT22;37579;51.074;17.004;2022-07-19T09:27:04;25.80;49.60
39751;DHT22;37579;51.074;17.004;2022-07-19T09:29:31;25.80;49.60
39751;DHT22;37579;51.074;17.004;2022-07-19T09:34:42;25.90;49.90
39751;DHT22;37579;51.074;17.004;2022-07-19T09:37:25;25.80;50.10
39751;DHT22;37579;51.074;17.004;2022-07-19T09:39:55;25.70;50.00
39751;DHT22;37579;51.074;17.004;2022-07-19T09:42:23;25.80;50.10
39751;DHT22;37579;51.074;17.004;2022-07-19T09:44:59;25.70;50.00
39751;DHT22;37579;51.074;17.004;2022-07-19T09:47:34;25.80;49.80
39751;DHT22;37579;51.074;17.004;2022-07-19T09:50:01;25.80;49.90
39751;DHT22;37579;51.074;17.004;2022-07-19T09:52:28;25.80;50.60
39751;DHT22;37579;51.074;17.004;2022-07-19T09:54:54;25.80;50.30
39751;DHT22;37579;51.074;17.004;2022-07-19T09:57:22;25.80;50.20
39751;DHT22;37579;51.074;17.004;2022-07-19T09:59:51;25.80;50.20
39751;DHT22;37579;51.074;17.004;2022-07-19T10:02:21;25.80;49.80
39751;DHT22;37579;51.074;17.004;2022-07-19T10:04:49;25.80;49.80
39751;DHT22;37579;51.074;17.004;2022-07-19T10:07:17;25.90;49.20
39751;DHT22;37579;51.074;17.004;2022-07-19T10:09:44;25.90;48.40
39751;DHT22;37579;51.074;17.004;2022-07-19T10:12:11;25.90;49.10
39751;DHT22;37579;51.074;17.004;2022-07-19T10:14:37;25.80;48.80
39751;DHT22;37579;51.074;17.004;2022-07-19T10:17:11;25.80;49.20
39751;DHT22;37579;51.074;17.004;2022-07-19T10:22:15;25.80;49.20
39751;DHT22;37579;51.074;17.004;2022-07-19T10:24:48;25.80;49.10
39751;DHT22;37579;51.074;17.004;2022-07-19T10:27:38;25.80;49.10
39751;DHT22;37579;51.074;17.004;2022-07-19T10:32:47;25.80;49.50
39751;DHT22;37579;51.074;17.004;2022-07-19T10:35:21;25.80;50.00
39751;DHT22;37579;51.074;17.004;2022-07-19T10:38:05;25.80;49.80
39751;DHT22;37579;51.074;17.004;2022-07-19T10:43:15;25.80;50.50
39751;DHT22;37579;51.074;17.004;2022-07-19T10:48:48;25.80;50.80
39751;DHT22;37579;51.074;17.004;2022-07-19T10:51:33;25.80;50.60
39751;DHT22;37579;51.074;17.004;2022-07-19T10:54:06;25.80;50.90
39751;DHT22;37579;51.074;17.004;2022-07-19T10:56:55;25.80;50.70
39751;DHT22;37579;51.074;17.004;2022-07-19T10:59:35;25.80;51.70
39751;DHT22;37579;51.074;17.004;2022-07-19T11:02:01;25.80;51.70
39751;DHT22;37579;51.074;17.004;2022-07-19T11:04:34;25.80;51.80
39751;DHT22;37579;51.074;17.004;2022-07-19T11:07:11;25.80;51.40
39751;DHT22;37579;51.074;17.004;2022-07-19T11:12:28;25.80;50.70
39751;DHT22;37579;51.074;17.004;2022-07-19T11:14:55;25.80;51.70
39751;DHT22;37579;51.074;17.004;2022-07-19T11:17:21;25.80;51.80
39751;DHT22;37579;51.074;17.004;2022-07-19T11:22:25;25.80;51.80
39751;DHT22;37579;51.074;17.004;2022-07-19T11:24:51;25.80;53.30
39751;DHT22;37579;51.074;17.004;2022-07-19T11:27:17;25.80;53.60
39751;DHT22;37579;51.074;17.004;2022-07-19T11:30:01;25.80;53.70
39751;DHT22;37579;51.074;17.004;2022-07-19T11:32:27;25.80;53.40
39751;DHT22;37579;51.074;17.004;2022-07-19T11:34:58;25.80;53.20
39751;DHT22;37579;51.074;17.004;2022-07-19T11:37:27;25.80;53.10
39751;DHT22;37579;51.074;17.004;2022-07-19T11:39:53;25.80;53.20
39751;DHT22;37579;51.074;17.004;2022-07-19T11:42:43;25.80;52.50
39751;DHT22;37579;51.074;17.004;2022-07-19T11:45:21;25.80;53.80
39751;DHT22;37579;51.074;17.004;2022-07-19T11:47:49;25.80;53.60
39751;DHT22;37579;51.074;17.004;2022-07-19T11:50:17;25.80;53.90
39751;DHT22;37579;51.074;17.004;2022-07-19T11:55:23;25.80;53.70
39751;DHT22;37579;51.074;17.004;2022-07-19T11:57:50;25.80;53.40
39751;DHT22;37579;51.074;17.004;2022-07-19T12:00:18;25.80;54.10
39751;DHT22;37579;51.074;17.004;2022-07-19T12:02:53;25.80;53.90
39751;DHT22;37579;51.074;17.004;2022-07-19T12:05:26;25.80;53.60
39751;DHT22;37579;51.074;17.004;2022-07-19T12:07:54;25.80;53.70
39751;DHT22;37579;51.074;17.004;2022-07-19T12:10:44;25.80;53.20
39751;DHT22;37579;51.074;17.004;2022-07-19T12:13:15;25.80;53.60
39751;DHT22;37579;51.074;17.004;2022-07-19T12:15:54;25.80;53.70
39751;DHT22;37579;51.074;17.004;2022-07-19T12:18:22;25.80;53.90
39751;DHT22;37579;51.074;17.004;2022-07-19T12:23:39;25.80;53.10
39751;DHT22;37579;51.074;17.004;2022-07-19T12:26:05;25.80;52.90
39751;DHT22;37579;51.074;17.004;2022-07-19T12:28:32;25.80;52.90
39751;DHT22;37579;51.074;17.004;2022-07-19T12:31:05;25.80;52.70
39751;DHT22;37579;51.074;17.004;2022-07-19T12:33:31;25.80;53.30
39751;DHT22;37579;51.074;17.004;2022-07-19T12:35:57;25.80;53.30
39751;DHT22;37579;51.074;17.004;2022-07-19T12:38:33;25.80;53.30
39751;DHT22;37579;51.074;17.004;2022-07-19T12:41:08;25.80;53.30
39751;DHT22;37579;51.074;17.004;2022-07-19T12:43:35;25.80;53.30
39751;DHT22;37579;51.074;17.004;2022-07-19T12:46:01;25.80;53.10
39751;DHT22;37579;51.074;17.004;2022-07-19T12:48:28;25.80;53.20
39751;DHT22;37579;51.074;17.004;2022-07-19T12:50:54;25.80;53.10
39751;DHT22;37579;51.074;17.004;2022-07-19T12:53:20;25.80;53.60
39751;DHT22;37579;51.074;17.004;2022-07-19T12:55:47;25.80;53.40
39751;DHT22;37579;51.074;17.004;2022-07-19T12:58:16;25.80;53.80
39751;DHT22;37579;51.074;17.004;2022-07-19T13:01:03;25.80;53.50
39751;DHT22;37579;51.074;17.004;2022-07-19T13:03:29;25.90;53.50
39751;DHT22;37579;51.074;17.004;2022-07-19T13:05:55;25.80;51.90
39751;DHT22;37579;51.074;17.004;2022-07-19T13:08:21;25.90;52.50
39751;DHT22;37579;51.074;17.004;2022-07-19T13:10:47;25.90;52.20
39751;DHT22;37579;51.074;17.004;2022-07-19T13:13:12;25.90;52.60
39751;DHT22;37579;51.074;17.004;2022-07-19T13:15:38;25.80;52.40
39751;DHT22;37579;51.074;17.004;2022-07-19T13:18:04;25.90;52.60
39751;DHT22;37579;51.074;17.004;2022-07-19T13:20:29;25.90;52.40
39751;DHT22;37579;51.074;17.004;2022-07-19T13:22:55;25.90;52.40
39751;DHT22;37579;51.074;17.004;2022-07-19T13:25:21;25.90;52.10
39751;DHT22;37579;51.074;17.004;2022-07-19T13:27:47;26.00;53.30
39751;DHT22;37579;51.074;17.004;2022-07-19T13:30:12;25.90;52.60
39751;DHT22;37579;51.074;17.004;2022-07-19T13:32:39;25.90;53.40
39751;DHT22;37579;51.074;17.004;2022-07-19T13:35:05;25.90;52.40
39751;DHT22;37579;51.074;17.004;2022-07-19T13:37:31;25.90;52.50
39751;DHT22;37579;51.074;17.004;2022-07-19T13:39:57;25.90;52.80
39751;DHT22;37579;51.074;17.004;2022-07-19T13:42:23;25.90;52.10
39751;DHT22;37579;51.074;17.004;2022-07-19T13:44:49;25.90;52.60
39751;DHT22;37579;51.074;17.004;2022-07-19T13:47:14;26.00;52.30
39751;DHT22;37579;51.074;17.004;2022-07-19T13:49:40;25.90;52.80
39751;DHT22;37579;51.074;17.004;2022-07-19T13:52:06;25.90;53.10
39751;DHT22;37579;51.074;17.004;2022-07-19T13:54:32;25.90;53.20
39751;DHT22;37579;51.074;17.004;2022-07-19T13:56:57;25.90;53.30
39751;DHT22;37579;51.074;17.004;2022-07-19T13:59:24;25.90;52.80
39751;DHT22;37579;51.074;17.004;2022-07-19T14:01:50;25.90;52.70
39751;DHT22;37579;51.074;17.004;2022-07-19T14:04:15;25.90;52.50
39751;DHT22;37579;51.074;17.004;2022-07-19T14:06:41;25.90;52.90
39751;DHT22;37579;51.074;17.004;2022-07-19T14:09:07;25.90;53.30
39751;DHT22;37579;51.074;17.004;2022-07-19T14:11:33;25.90;53.40
39751;DHT22;37579;51.074;17.004;2022-07-19T14:14:00;25.90;53.40
39751;DHT22;37579;51.074;17.004;2022-07-19T14:16:26;25.90;53.40
39751;DHT22;37579;51.074;17.004;2022-07-19T14:18:52;25.90;53.40
39751;DHT22;37579;51.074;17.004;2022-07-19T14:21:18;25.90;53.60
39751;DHT22;37579;51.074;17.004;2022-07-19T14:23:44;25.90;53.40
39751;DHT22;37579;51.074;17.004;2022-07-19T14:26:10;25.90;53.40
39751;DHT22;37579;51.074;17.004;2022-07-19T14:28:35;25.90;53.50
39751;DHT22;37579;51.074;17.004;2022-07-19T14:31:01;25.90;53.40
39751;DHT22;37579;51.074;17.004;2022-07-19T14:33:27;25.90;53.50
39751;DHT22;37579;51.074;17.004;2022-07-19T14:35:53;25.90;53.50
39751;DHT22;37579;51.074;17.004;2022-07-19T14:38:18;25.90;53.40
39751;DHT22;37579;51.074;17.004;2022-07-19T14:40:44;25.90;53.00
39751;DHT22;37579;51.074;17.004;2022-07-19T14:43:10;25.90;52.90
39751;DHT22;37579;51.074;17.004;2022-07-19T14:45:36;25.90;53.00
39751;DHT22;37579;51.074;17.004;2022-07-19T14:48:02;25.90;53.70
39751;DHT22;37579;51.074;17.004;2022-07-19T14:50:27;25.90;53.20
39751;DHT22;37579;51.074;17.004;2022-07-19T14:52:53;25.90;53.10
39751;DHT22;37579;51.074;17.004;2022-07-19T14:55:19;25.90;53.00
39751;DHT22;37579;51.074;17.004;2022-07-19T14:57:45;25.90;53.20
39751;DHT22;37579;51.074;17.004;2022-07-19T15:00:11;25.90;53.60
39751;DHT22;37579;51.074;17.004;2022-07-19T15:02:38;25.90;53.50
39751;DHT22;37579;51.074;17.004;2022-07-19T15:05:05;25.90;53.20
39751;DHT22;37579;51.074;17.004;2022-07-19T15:07:31;25.90;53.00
39751;DHT22;37579;51.074;17.004;2022-07-19T15:09:56;25.90;52.20
39751;DHT22;37579;51.074;17.004;2022-07-19T15:12:23;25.90;52.30
39751;DHT22;37579;51.074;17.004;2022-07-19T15:14:49;25.90;52.10
39751;DHT22;37579;51.074;17.004;2022-07-19T15:17:16;25.90;52.20
39751;DHT22;37579;51.074;17.004;2022-07-19T15:19:41;25.90;52.20
39751;DHT22;37579;51.074;17.004;2022-07-19T15:22:07;25.90;52.10
39751;DHT22;37579;51.074;17.004;2022-07-19T15:24:33;25.90;52.30
39751;DHT22;37579;51.074;17.004;2022-07-19T15:26:59;25.90;52.10
39751;DHT22;37579;51.074;17.004;2022-07-19T15:29:25;25.90;52.10
39751;DHT22;37579;51.074;17.004;2022-07-19T15:31:51;25.90;52.20
39751;DHT22;37579;51.074;17.004;2022-07-19T15:34:16;25.90;52.50
39751;DHT22;37579;51.074;17.004;2022-07-19T15:36:42;26.00;52.60
39751;DHT22;37579;51.074;17.004;2022-07-19T15:39:08;26.10;52.40
39751;DHT22;37579;51.074;17.004;2022-07-19T15:41:34;26.00;52.60
39751;DHT22;37579;51.074;17.004;2022-07-19T15:44:00;26.00;52.70
39751;DHT22;37579;51.074;17.004;2022-07-19T15:46:30;26.00;52.80